Time;durP1;ratioP1;P1;durP2;ratioP2;P2;SDS_P1;SDS_P2;PMS_P1;PMS_P2;Temp;Humidity;BMP_temperature;BMP_pressure;BME280_temperature;BME280_humidity;BME280_pressure;Samples;Min_cycle;Max_cycle;Signal;HPM_P1;HPM_P2
2022/11/14 00:01:16;;;;;;;94.47;40.23;;;;;;;;;;4992306;28;20071;-77
2022/11/14 00:03:42;;;;;;;90.00;38.00;;;;;;;;;;4993812;28;20026;-76
2022/11/14 00:06:07;;;;;;;76.77;35.63;;;;;;;;;;4993560;28;20026;-77
2022/11/14 00:08:34;;;;;;;94.80;37.87;;;;;;;;;;4994083;28;20077;-77
2022/11/14 00:10:59;;;;;;;87.60;39.03;;;;;;;;;;4976895;28;20140;-79
2022/11/14 00:13:24;;;;;;;89.70;40.93;;;;;;;;;;4994441;28;20083;-78
2022/11/14 00:15:54;;;;;;;104.00;43.03;;;;;;;;;;4993746;28;20034;-78
2022/11/14 00:18:20;;;;;;;93.97;44.80;;;;;;;;;;4991824;28;20018;-77
2022/11/14 00:20:50;;;;;;;95.50;44.17;;;;;;;;;;4993483;28;20475;-77
2022/11/14 00:23:16;;;;;;;94.87;44.87;;;;;;;;;;4993446;28;20026;-77
2022/11/14 00:25:43;;;;;;;98.30;45.40;;;;;;;;;;4992163;28;20057;-76
2022/11/14 00:28:09;;;;;;;93.00;42.70;;;;;;;;;;4992691;28;20036;-78
2022/11/14 00:30:34;;;;;;;93.43;43.30;;;;;;;;;;4993286;28;20129;-78
2022/11/14 00:33:00;;;;;;;89.97;39.60;;;;;;;;;;4992119;28;20022;-79
2022/11/14 00:35:25;;;;;;;80.40;37.53;;;;;;;;;;4991745;28;20026;-77
2022/11/14 00:37:51;;;;;;;80.33;35.40;;;;;;;;;;4992156;28;20037;-78
2022/11/14 00:40:16;;;;;;;83.00;36.73;;;;;;;;;;4991797;28;20026;-78
2022/11/14 00:42:42;;;;;;;74.53;32.03;;;;;;;;;;4993131;28;20089;-78
2022/11/14 00:45:08;;;;;;;68.17;28.90;;;;;;;;;;4993786;28;20033;-77
2022/11/14 00:47:34;;;;;;;61.83;28.57;;;;;;;;;;4993270;28;20037;-77
2022/11/14 00:49:59;;;;;;;65.80;27.47;;;;;;;;;;4992928;28;20026;-77
2022/11/14 00:52:25;;;;;;;60.30;27.30;;;;;;;;;;4993045;28;20106;-76
2022/11/14 00:54:50;;;;;;;63.40;26.10;;;;;;;;;;4991846;28;20189;-76
2022/11/14 00:57:15;;;;;;;58.63;25.73;;;;;;;;;;4993452;28;20069;-78
2022/11/14 00:59:41;;;;;;;59.10;26.83;;;;;;;;;;4992439;28;20034;-78
2022/11/14 01:02:06;;;;;;;56.57;25.43;;;;;;;;;;4991617;28;20032;-77
2022/11/14 01:04:32;;;;;;;59.23;24.60;;;;;;;;;;4974952;28;20478;-78
2022/11/14 01:06:57;;;;;;;58.53;25.13;;;;;;;;;;4992629;28;20105;-75
2022/11/14 01:09:23;;;;;;;51.60;22.80;;;;;;;;;;4992541;28;20036;-77
2022/11/14 01:11:48;;;;;;;50.63;23.57;;;;;;;;;;4991734;28;20327;-78
2022/11/14 01:14:14;;;;;;;55.63;24.03;;;;;;;;;;4992616;28;20026;-76
2022/11/14 01:16:39;;;;;;;52.73;22.70;;;;;;;;;;4991356;28;20122;-78
2022/11/14 01:19:05;;;;;;;53.00;22.77;;;;;;;;;;4991304;28;20029;-77
2022/11/14 01:21:30;;;;;;;48.67;22.30;;;;;;;;;;4990423;28;20069;-78
2022/11/14 01:23:57;;;;;;;59.70;24.23;;;;;;;;;;4992013;28;20093;-77
2022/11/14 01:26:23;;;;;;;52.73;23.00;;;;;;;;;;5001161;28;20164;-77
2022/11/14 01:28:48;;;;;;;52.10;23.20;;;;;;;;;;5011155;28;20021;-77
2022/11/14 01:31:17;;;;;;;52.23;22.80;;;;;;;;;;5011270;28;20040;-77
2022/11/14 01:33:43;;;;;;;52.63;23.33;;;;;;;;;;5012025;28;20022;-78
2022/11/14 01:36:09;;;;;;;58.13;24.50;;;;;;;;;;5012108;28;20029;-78
2022/11/14 01:38:36;;;;;;;51.10;22.33;;;;;;;;;;5011769;28;20025;-79
2022/11/14 01:41:02;;;;;;;49.73;22.50;;;;;;;;;;5009664;28;20092;-78
2022/11/14 01:43:32;;;;;;;52.80;21.70;;;;;;;;;;5043665;28;20053;-77
2022/11/14 01:46:00;;;;;;;54.43;22.87;;;;;;;;;;5011688;28;20517;-77
2022/11/14 01:48:49;;;;;;;51.70;23.67;;;;;;;;;;5011693;28;20433;-77
2022/11/14 01:51:34;;;;;;;46.97;21.40;;;;;;;;;;5011915;28;20430;-77
2022/11/14 01:54:04;;;;;;;54.47;21.47;;;;;;;;;;5011390;28;20109;-78
2022/11/14 01:56:38;;;;;;;49.83;21.80;;;;;;;;;;5011936;28;20026;-78
2022/11/14 01:59:10;;;;;;;53.60;20.93;;;;;;;;;;5012055;28;20446;-78
2022/11/14 02:01:43;;;;;;;48.47;22.80;;;;;;;;;;5010349;28;20030;-77
2022/11/14 02:04:10;;;;;;;49.40;23.77;;;;;;;;;;5011750;28;20026;-78
2022/11/14 02:06:38;;;;;;;50.73;21.63;;;;;;;;;;5011512;28;20053;-78
2022/11/14 02:09:06;;;;;;;44.07;20.87;;;;;;;;;;5012099;28;20088;-75
2022/11/14 02:11:43;;;;;;;49.43;22.10;;;;;;;;;;5010046;28;20026;-78
2022/11/14 02:14:09;;;;;;;47.07;20.67;;;;;;;;;;5010840;28;20102;-78
2022/11/14 02:16:36;;;;;;;48.93;22.77;;;;;;;;;;5011677;28;20026;-78
2022/11/14 02:19:04;;;;;;;49.10;22.73;;;;;;;;;;5010096;28;20084;-78
2022/11/14 02:21:30;;;;;;;51.57;21.57;;;;;;;;;;5009579;28;20032;-78
2022/11/14 02:23:55;;;;;;;48.10;22.67;;;;;;;;;;5011242;28;20034;-77
2022/11/14 02:26:21;;;;;;;48.90;20.60;;;;;;;;;;5011264;28;20084;-79
2022/11/14 02:28:47;;;;;;;45.80;21.57;;;;;;;;;;5011568;28;20022;-77
2022/11/14 02:31:14;;;;;;;48.57;19.90;;;;;;;;;;5009974;28;20030;-78
2022/11/14 02:33:39;;;;;;;54.80;25.80;;;;;;;;;;5010226;28;20136;-78
2022/11/14 02:36:05;;;;;;;50.07;22.50;;;;;;;;;;5010399;28;20050;-79
2022/11/14 02:38:31;;;;;;;48.30;20.33;;;;;;;;;;5012473;28;20053;-77
2022/11/14 02:40:58;;;;;;;49.20;21.23;;;;;;;;;;5014705;28;20042;-77
2022/11/14 02:43:24;;;;;;;47.93;21.57;;;;;;;;;;5014916;28;20505;-78
2022/11/14 02:45:49;;;;;;;47.53;20.13;;;;;;;;;;5015226;28;20018;-77
2022/11/14 02:48:15;;;;;;;43.87;22.40;;;;;;;;;;5013155;28;20079;-77
2022/11/14 02:50:40;;;;;;;55.43;23.43;;;;;;;;;;5015007;28;20083;-78
2022/11/14 02:53:06;;;;;;;48.13;21.07;;;;;;;;;;5013991;28;20489;-78
2022/11/14 02:55:31;;;;;;;47.70;21.77;;;;;;;;;;5014813;28;20104;-77
2022/11/14 02:57:57;;;;;;;44.20;20.97;;;;;;;;;;5015334;28;20149;-77
2022/11/14 03:00:22;;;;;;;50.53;22.83;;;;;;;;;;5013440;28;20026;-78
2022/11/14 03:02:47;;;;;;;49.13;21.60;;;;;;;;;;5013580;28;20359;-79
2022/11/14 03:05:13;;;;;;;43.43;20.67;;;;;;;;;;5014819;28;20052;-77
2022/11/14 03:07:38;;;;;;;47.83;21.57;;;;;;;;;;5014867;28;20112;-78
2022/11/14 03:10:04;;;;;;;48.43;21.47;;;;;;;;;;5014612;28;20088;-77
2022/11/14 03:12:30;;;;;;;48.13;20.03;;;;;;;;;;5013781;28;20029;-77
2022/11/14 03:14:55;;;;;;;46.03;20.33;;;;;;;;;;5013100;28;20117;-77
2022/11/14 03:17:23;;;;;;;46.90;20.97;;;;;;;;;;5014344;28;20053;-77
2022/11/14 03:19:49;;;;;;;51.40;21.67;;;;;;;;;;5015137;28;20037;-76
2022/11/14 03:22:14;;;;;;;59.00;27.70;;;;;;;;;;5014385;28;20442;-76
2022/11/14 03:24:40;;;;;;;52.93;22.17;;;;;;;;;;5013809;28;20026;-77
2022/11/14 03:27:05;;;;;;;45.73;21.37;;;;;;;;;;5012111;28;20030;-77
2022/11/14 03:29:31;;;;;;;49.27;21.57;;;;;;;;;;5014057;28;20022;-78
2022/11/14 03:31:56;;;;;;;43.93;20.03;;;;;;;;;;5013168;28;20079;-77
2022/11/14 03:34:22;;;;;;;45.70;20.37;;;;;;;;;;5014621;28;20068;-77
2022/11/14 03:36:48;;;;;;;41.93;20.50;;;;;;;;;;5014420;28;20030;-78
2022/11/14 03:39:13;;;;;;;43.60;20.70;;;;;;;;;;5013180;28;20037;-77
2022/11/14 03:41:39;;;;;;;43.10;20.63;;;;;;;;;;5013823;28;20042;-78
2022/11/14 03:44:05;;;;;;;49.70;22.00;;;;;;;;;;5013234;28;20069;-77
2022/11/14 03:46:31;;;;;;;45.37;21.97;;;;;;;;;;5014236;28;20530;-78
2022/11/14 03:48:56;;;;;;;41.77;20.10;;;;;;;;;;5013619;28;20113;-77
2022/11/14 03:51:22;;;;;;;49.87;20.23;;;;;;;;;;5013652;28;20038;-78
2022/11/14 03:53:47;;;;;;;42.17;21.20;;;;;;;;;;5014100;28;20033;-76
2022/11/14 03:56:13;;;;;;;46.30;23.00;;;;;;;;;;5013029;28;20057;-77
2022/11/14 03:58:38;;;;;;;46.20;20.93;;;;;;;;;;5013862;28;20030;-77
2022/11/14 04:01:04;;;;;;;48.13;22.67;;;;;;;;;;5013939;28;20482;-78
2022/11/14 04:03:29;;;;;;;44.13;21.70;;;;;;;;;;5012475;28;20040;-78
2022/11/14 04:05:54;;;;;;;45.70;22.93;;;;;;;;;;5013672;28;20060;-78
2022/11/14 04:08:20;;;;;;;42.20;19.80;;;;;;;;;;5014686;28;20030;-77
2022/11/14 04:10:47;;;;;;;43.90;20.47;;;;;;;;;;5013297;28;20113;-78
2022/11/14 04:13:13;;;;;;;46.93;20.80;;;;;;;;;;5012615;28;20045;-77
2022/11/14 04:15:38;;;;;;;46.73;22.17;;;;;;;;;;5013457;28;20034;-77
2022/11/14 04:18:04;;;;;;;45.40;20.13;;;;;;;;;;5011997;28;20563;-78
2022/11/14 04:20:29;;;;;;;42.33;21.37;;;;;;;;;;5013298;28;20482;-78
2022/11/14 04:22:54;;;;;;;44.63;21.53;;;;;;;;;;5013545;28;20156;-77
2022/11/14 04:25:20;;;;;;;46.73;21.53;;;;;;;;;;5012536;28;20107;-77
2022/11/14 04:27:45;;;;;;;46.67;21.73;;;;;;;;;;5013598;28;20037;-78
2022/11/14 04:30:11;;;;;;;44.47;22.53;;;;;;;;;;5012121;28;20049;-78
2022/11/14 04:32:36;;;;;;;48.43;22.80;;;;;;;;;;5013372;28;20038;-77
2022/11/14 04:35:02;;;;;;;47.00;20.87;;;;;;;;;;5013585;28;20033;-78
2022/11/14 04:37:27;;;;;;;40.73;18.87;;;;;;;;;;5013156;28;20048;-77
2022/11/14 04:39:57;;;;;;;46.47;21.13;;;;;;;;;;5012100;28;20026;-79
2022/11/14 04:42:24;;;;;;;45.53;20.90;;;;;;;;;;5012382;28;20582;-77
2022/11/14 04:44:49;;;;;;;39.60;19.17;;;;;;;;;;5012698;28;20449;-79
2022/11/14 04:47:15;;;;;;;42.17;19.13;;;;;;;;;;5012116;28;20080;-77
2022/11/14 04:49:40;;;;;;;43.20;18.37;;;;;;;;;;5012687;28;20034;-77
2022/11/14 04:52:06;;;;;;;40.23;20.33;;;;;;;;;;5013450;28;20121;-76
2022/11/14 04:54:31;;;;;;;48.03;20.83;;;;;;;;;;5011882;28;20060;-77
2022/11/14 04:56:56;;;;;;;34.77;18.43;;;;;;;;;;5013001;28;20041;-78
2022/11/14 04:59:22;;;;;;;40.73;20.20;;;;;;;;;;5012827;28;20038;-77
2022/11/14 05:01:47;;;;;;;50.33;23.63;;;;;;;;;;5010676;28;20034;-79
2022/11/14 05:04:13;;;;;;;42.50;19.13;;;;;;;;;;5011361;28;20029;-77
2022/11/14 05:06:38;;;;;;;42.77;20.67;;;;;;;;;;5011218;28;20084;-78
2022/11/14 05:09:04;;;;;;;41.63;20.23;;;;;;;;;;5011441;28;20109;-77
2022/11/14 05:11:31;;;;;;;38.60;18.63;;;;;;;;;;5013028;28;20041;-76
2022/11/14 05:13:56;;;;;;;33.70;18.73;;;;;;;;;;5012820;28;20104;-77
2022/11/14 05:16:21;;;;;;;38.97;19.73;;;;;;;;;;5012688;28;20086;-78
2022/11/14 05:18:47;;;;;;;40.53;19.00;;;;;;;;;;5012477;28;20061;-78
2022/11/14 05:21:14;;;;;;;40.33;19.20;;;;;;;;;;5026754;28;20029;-78
2022/11/14 05:23:39;;;;;;;46.57;18.87;;;;;;;;;;5012296;28;20109;-78
2022/11/14 05:26:07;;;;;;;41.27;20.33;;;;;;;;;;5003687;28;20104;-77
2022/11/14 05:28:33;;;;;;;38.33;20.13;;;;;;;;;;5006186;28;20049;-78
2022/11/14 05:31:01;;;;;;;39.40;18.77;;;;;;;;;;4992182;28;20034;-78
2022/11/14 05:33:27;;;;;;;43.20;20.43;;;;;;;;;;4991260;28;20299;-78
2022/11/14 05:35:53;;;;;;;41.87;19.90;;;;;;;;;;4991702;28;20447;-78
2022/11/14 05:38:18;;;;;;;46.20;20.97;;;;;;;;;;4992661;28;20026;-76
2022/11/14 05:40:43;;;;;;;42.23;20.80;;;;;;;;;;4992041;28;20050;-77
2022/11/14 05:43:09;;;;;;;37.23;20.03;;;;;;;;;;4991372;28;20034;-78
2022/11/14 05:45:34;;;;;;;36.17;18.20;;;;;;;;;;4990629;28;20046;-78
2022/11/14 05:48:00;;;;;;;38.57;20.27;;;;;;;;;;4991079;28;20045;-77
2022/11/14 05:50:25;;;;;;;41.37;19.23;;;;;;;;;;4992604;28;20030;-78
2022/11/14 05:52:50;;;;;;;41.43;20.87;;;;;;;;;;4992260;28;20038;-78
2022/11/14 05:55:16;;;;;;;40.90;20.43;;;;;;;;;;4992437;28;20026;-78
2022/11/14 05:57:41;;;;;;;47.53;19.97;;;;;;;;;;4990654;28;20066;-77
2022/11/14 06:00:08;;;;;;;37.07;18.50;;;;;;;;;;4991050;28;20463;-77
2022/11/14 06:02:34;;;;;;;46.20;23.67;;;;;;;;;;4990734;28;20069;-78
2022/11/14 06:04:59;;;;;;;42.57;20.43;;;;;;;;;;4991341;28;20061;-78
2022/11/14 06:07:25;;;;;;;41.37;20.43;;;;;;;;;;4992138;28;20026;-78
2022/11/14 06:09:50;;;;;;;38.47;19.17;;;;;;;;;;4991277;28;20050;-76
2022/11/14 06:12:16;;;;;;;43.77;20.40;;;;;;;;;;4993813;28;20030;-77
2022/11/14 06:14:41;;;;;;;39.57;19.40;;;;;;;;;;4996836;28;20037;-77
2022/11/14 06:17:07;;;;;;;44.60;20.43;;;;;;;;;;4995347;28;20057;-79
2022/11/14 06:19:32;;;;;;;45.17;20.60;;;;;;;;;;5009559;28;20061;-79
2022/11/14 06:21:58;;;;;;;42.07;23.10;;;;;;;;;;5024291;28;20478;-77
2022/11/14 06:24:23;;;;;;;43.43;20.93;;;;;;;;;;5014097;28;20041;-75
2022/11/14 06:26:50;;;;;;;41.00;20.47;;;;;;;;;;5011240;28;20030;-78
2022/11/14 06:29:15;;;;;;;44.33;20.13;;;;;;;;;;5011022;28;20034;-75
2022/11/14 06:31:43;;;;;;;45.60;20.73;;;;;;;;;;5012593;28;20746;-75
2022/11/14 06:34:10;;;;;;;42.57;20.87;;;;;;;;;;5008741;28;20033;-78
2022/11/14 06:36:35;;;;;;;41.43;21.27;;;;;;;;;;5029152;28;20030;-79
2022/11/14 06:39:01;;;;;;;42.20;20.03;;;;;;;;;;5007657;28;20030;-76
2022/11/14 06:41:26;;;;;;;39.13;20.53;;;;;;;;;;5012767;28;20097;-74
2022/11/14 06:43:53;;;;;;;40.53;18.90;;;;;;;;;;5008935;28;20084;-74
2022/11/14 06:46:19;;;;;;;43.97;21.20;;;;;;;;;;5013812;28;20487;-77
2022/11/14 06:48:46;;;;;;;36.73;18.73;;;;;;;;;;5009783;28;20018;-77
2022/11/14 06:51:13;;;;;;;38.97;20.47;;;;;;;;;;5003906;28;20030;-76
2022/11/14 06:53:39;;;;;;;41.30;20.07;;;;;;;;;;5006402;28;20062;-77
2022/11/14 06:56:10;;;;;;;40.40;20.43;;;;;;;;;;5006136;28;20060;-76
2022/11/14 06:58:37;;;;;;;43.67;20.40;;;;;;;;;;5000232;28;20038;-77
2022/11/14 07:01:18;;;;;;;47.40;21.10;;;;;;;;;;5000346;28;20464;-76
2022/11/14 07:03:44;;;;;;;42.93;20.77;;;;;;;;;;5006228;28;20037;-78
2022/11/14 07:06:12;;;;;;;42.97;21.03;;;;;;;;;;5009563;28;20029;-77
2022/11/14 07:08:38;;;;;;;41.27;20.87;;;;;;;;;;4998515;28;20029;-77
2022/11/14 07:11:22;;;;;;;50.60;22.30;;;;;;;;;;5008060;28;20393;-78
2022/11/14 07:13:53;;;;;;;42.57;20.53;;;;;;;;;;4990436;28;20074;-75
2022/11/14 07:16:20;;;;;;;49.03;21.87;;;;;;;;;;5015492;28;20033;-77
2022/11/14 07:18:45;;;;;;;42.23;20.43;;;;;;;;;;5008121;28;20386;-76
2022/11/14 07:21:14;;;;;;;47.37;21.67;;;;;;;;;;5011008;28;20038;-76
2022/11/14 07:23:41;;;;;;;49.80;21.93;;;;;;;;;;4994390;28;20104;-76
2022/11/14 07:26:08;;;;;;;44.53;20.97;;;;;;;;;;5006395;28;20601;-77
2022/11/14 07:28:34;;;;;;;46.60;22.60;;;;;;;;;;4994922;28;20140;-76
2022/11/14 07:31:07;;;;;;;49.00;22.20;;;;;;;;;;5005181;28;20104;-75
2022/11/14 07:33:35;;;;;;;41.17;21.13;;;;;;;;;;5004604;28;20131;-76
2022/11/14 07:36:00;;;;;;;41.53;19.27;;;;;;;;;;5005882;28;20366;-81
2022/11/14 07:38:26;;;;;;;44.50;21.83;;;;;;;;;;5002567;28;20035;-80
2022/11/14 07:40:56;;;;;;;46.57;21.97;;;;;;;;;;5025569;28;20048;-78
2022/11/14 07:43:21;;;;;;;48.80;22.20;;;;;;;;;;5008935;28;20025;-77
2022/11/14 07:45:47;;;;;;;43.00;21.63;;;;;;;;;;5011118;28;20731;-77
2022/11/14 07:48:14;;;;;;;47.90;22.60;;;;;;;;;;5004680;28;20084;-77
2022/11/14 07:50:39;;;;;;;43.93;21.70;;;;;;;;;;5005272;28;20155;-76
2022/11/14 07:53:05;;;;;;;43.70;20.50;;;;;;;;;;5008752;28;20022;-78
2022/11/14 07:55:30;;;;;;;43.80;22.20;;;;;;;;;;5008008;28;20029;-77
2022/11/14 07:57:58;;;;;;;50.33;24.30;;;;;;;;;;5004501;28;20418;-79
2022/11/14 08:00:24;;;;;;;44.87;22.10;;;;;;;;;;5002883;28;20036;-78
2022/11/14 08:02:50;;;;;;;44.87;21.40;;;;;;;;;;5006245;28;20033;-80
2022/11/14 08:05:16;;;;;;;52.93;24.57;;;;;;;;;;5007927;28;20030;-76
2022/11/14 08:07:42;;;;;;;49.83;22.17;;;;;;;;;;5003842;28;20061;-78
2022/11/14 08:10:10;;;;;;;47.87;24.20;;;;;;;;;;5005215;28;20029;-81
2022/11/14 08:12:37;;;;;;;49.57;25.47;;;;;;;;;;5010205;28;20115;-79
2022/11/14 08:15:03;;;;;;;78.43;34.73;;;;;;;;;;5009000;28;20038;-79
2022/11/14 08:17:29;;;;;;;58.13;26.97;;;;;;;;;;5005625;28;20068;-79
2022/11/14 08:19:54;;;;;;;64.50;27.50;;;;;;;;;;4987355;28;20037;-79
2022/11/14 08:22:20;;;;;;;61.23;26.03;;;;;;;;;;5008962;28;20038;-80
2022/11/14 08:24:45;;;;;;;65.17;26.43;;;;;;;;;;5005516;28;20065;-80
2022/11/14 08:27:11;;;;;;;58.10;28.07;;;;;;;;;;5005112;28;20040;-79
2022/11/14 08:29:36;;;;;;;59.73;28.20;;;;;;;;;;5006264;28;20033;-78
2022/11/14 08:32:02;;;;;;;59.70;27.07;;;;;;;;;;5007872;28;20030;-78
2022/11/14 08:34:28;;;;;;;66.77;29.37;;;;;;;;;;5004868;28;20034;-80
2022/11/14 08:36:55;;;;;;;58.03;29.47;;;;;;;;;;5007460;28;20693;-80
2022/11/14 08:39:22;;;;;;;59.60;28.20;;;;;;;;;;5006914;28;20033;-78
2022/11/14 08:41:47;;;;;;;59.03;28.23;;;;;;;;;;5008023;28;20050;-79
2022/11/14 08:44:13;;;;;;;50.87;25.43;;;;;;;;;;5008082;28;20034;-78
2022/11/14 08:46:38;;;;;;;49.63;24.33;;;;;;;;;;5009881;28;20052;-78
2022/11/14 08:49:07;;;;;;;47.20;22.27;;;;;;;;;;5005065;28;20041;-78
2022/11/14 08:51:33;;;;;;;43.53;20.33;;;;;;;;;;5008407;28;20044;-79
2022/11/14 08:53:59;;;;;;;52.30;24.37;;;;;;;;;;5006790;28;20409;-78
2022/11/14 08:56:25;;;;;;;47.37;22.67;;;;;;;;;;5011143;28;20025;-79
2022/11/14 08:58:51;;;;;;;50.10;23.60;;;;;;;;;;4999109;28;20030;-79
2022/11/14 09:01:17;;;;;;;42.17;21.23;;;;;;;;;;5006222;28;20037;-78
2022/11/14 09:03:42;;;;;;;49.03;22.57;;;;;;;;;;5008210;28;20030;-78
2022/11/14 09:06:08;;;;;;;41.60;22.47;;;;;;;;;;5005352;28;20186;-80
2022/11/14 09:08:34;;;;;;;44.30;21.50;;;;;;;;;;5001072;28;20033;-79
2022/11/14 09:11:05;;;;;;;40.93;21.53;;;;;;;;;;5003942;28;20022;-78
2022/11/14 09:13:34;;;;;;;46.88;24.20;;;;;;;;;;5005327;28;20520;-78
2022/11/14 09:16:00;;;;;;;48.80;23.80;;;;;;;;;;4999242;28;20126;-78
2022/11/14 09:18:26;;;;;;;43.77;22.77;;;;;;;;;;5003346;28;20021;-79
2022/11/14 09:20:51;;;;;;;49.37;22.97;;;;;;;;;;5008190;28;20034;-77
2022/11/14 09:23:17;;;;;;;52.70;26.83;;;;;;;;;;5008964;28;20041;-79
2022/11/14 09:25:43;;;;;;;48.07;23.47;;;;;;;;;;5005898;28;20037;-78
2022/11/14 09:28:08;;;;;;;45.70;23.37;;;;;;;;;;5005159;28;20072;-77
2022/11/14 09:30:45;;;;;;;51.83;24.97;;;;;;;;;;5007156;28;20022;-79
2022/11/14 09:33:10;;;;;;;51.80;26.17;;;;;;;;;;5007119;28;20033;-76
2022/11/14 09:35:36;;;;;;;51.10;24.03;;;;;;;;;;5008553;28;20041;-78
2022/11/14 09:38:04;;;;;;;52.63;25.93;;;;;;;;;;5001675;28;20107;-77
2022/11/14 09:40:47;;;;;;;46.57;22.93;;;;;;;;;;5000850;28;20037;-77
2022/11/14 09:43:41;;;;;;;49.05;21.08;;;;;;;;;;5004378;28;20040;-77
2022/11/14 09:46:30;;;;;;;47.03;23.13;;;;;;;;;;5011167;28;20045;-79
2022/11/14 09:48:56;;;;;;;38.67;16.42;;;;;;;;;;4994551;28;20046;-78
2022/11/14 09:51:32;;;;;;;33.10;17.05;;;;;;;;;;5003185;28;20022;-77
2022/11/14 09:54:21;;;;;;;32.45;17.20;;;;;;;;;;5012191;28;20030;-79
2022/11/14 09:56:48;;;;;;;32.67;16.58;;;;;;;;;;5003836;28;20084;-80
2022/11/14 09:59:13;;;;;;;31.13;13.95;;;;;;;;;;5002800;28;20502;-78
2022/11/14 10:02:02;;;;;;;27.52;13.25;;;;;;;;;;5005982;28;20033;-79
2022/11/14 10:04:44;;;;;;;25.95;13.32;;;;;;;;;;5008812;28;20033;-79
2022/11/14 10:07:28;;;;;;;25.25;13.00;;;;;;;;;;5003779;28;20037;-80
2022/11/14 10:10:13;;;;;;;36.15;18.17;;;;;;;;;;5021149;28;20046;-80
2022/11/14 10:12:56;;;;;;;35.83;17.50;;;;;;;;;;5022303;28;20038;-77
2022/11/14 10:15:30;;;;;;;29.67;15.07;;;;;;;;;;5007497;28;20041;-77
2022/11/14 10:18:20;;;;;;;33.20;14.45;;;;;;;;;;5003373;28;20145;-80
2022/11/14 10:20:53;;;;;;;34.55;17.95;;;;;;;;;;5006296;28;20034;-79
2022/11/14 10:23:41;;;;;;;26.33;15.05;;;;;;;;;;5004067;28;20041;-80
2022/11/14 10:26:24;;;;;;;31.95;14.63;;;;;;;;;;5006777;28;20043;-79
2022/11/14 10:29:08;;;;;;;31.77;13.55;;;;;;;;;;5007249;28;20030;-77
2022/11/14 10:32:14;;;;;;;21.65;11.35;;;;;;;;;;5007436;28;20046;-79
2022/11/14 10:34:55;;;;;;;27.42;13.40;;;;;;;;;;5003697;28;20076;-77
2022/11/14 10:37:31;;;;;;;22.95;12.55;;;;;;;;;;5001728;28;20526;-79
2022/11/14 10:40:09;;;;;;;21.60;11.82;;;;;;;;;;5004375;28;20048;-77
2022/11/14 10:42:38;;;;;;;27.73;12.43;;;;;;;;;;5002897;28;20045;-79
2022/11/14 10:45:27;;;;;;;29.23;12.65;;;;;;;;;;5008259;28;20026;-80
2022/11/14 10:48:02;;;;;;;21.60;12.02;;;;;;;;;;5008610;28;20748;-78
2022/11/14 10:50:46;;;;;;;27.60;14.40;;;;;;;;;;5006401;28;20025;-79
2022/11/14 10:53:23;;;;;;;20.20;11.63;;;;;;;;;;5001289;28;20030;-77
2022/11/14 10:55:50;;;;;;;24.67;12.10;;;;;;;;;;5006652;28;20026;-76
2022/11/14 10:58:17;;;;;;;22.92;12.90;;;;;;;;;;4999393;28;20100;-76
2022/11/14 11:00:43;;;;;;;25.15;11.57;;;;;;;;;;5007463;28;20521;-78
2022/11/14 11:03:08;;;;;;;21.33;11.65;;;;;;;;;;5011059;28;20041;-78
2022/11/14 11:05:51;;;;;;;22.05;11.93;;;;;;;;;;5005453;28;20056;-78
2022/11/14 11:11:29;;;;;;;20.70;11.23;;;;;;;;;;5007963;28;20043;-78
2022/11/14 11:13:58;;;;;;;23.30;12.68;;;;;;;;;;5007680;28;20026;-78
2022/11/14 11:16:25;;;;;;;24.50;12.10;;;;;;;;;;5010287;28;20044;-78
2022/11/14 11:18:52;;;;;;;20.63;11.48;;;;;;;;;;5007929;28;20021;-78
2022/11/14 11:21:21;;;;;;;20.90;11.90;;;;;;;;;;5006642;28;20071;-82
2022/11/14 11:23:49;;;;;;;25.08;11.43;;;;;;;;;;5009523;28;20075;-81
2022/11/14 11:26:17;;;;;;;27.92;12.80;;;;;;;;;;5007955;28;20129;-80
2022/11/14 11:29:08;;;;;;;21.23;12.05;;;;;;;;;;5006875;28;20066;-79
2022/11/14 11:31:51;;;;;;;24.10;11.35;;;;;;;;;;5022466;28;20082;-78
2022/11/14 11:34:30;;;;;;;22.60;11.70;;;;;;;;;;5005500;28;20133;-79
2022/11/14 11:37:14;;;;;;;24.65;13.00;;;;;;;;;;5006157;28;20101;-78
2022/11/14 11:39:44;;;;;;;25.13;12.70;;;;;;;;;;5008297;28;20049;-78
2022/11/14 11:42:16;;;;;;;21.90;12.38;;;;;;;;;;5008046;28;20159;-78
2022/11/14 11:44:47;;;;;;;20.20;11.43;;;;;;;;;;5014269;28;20525;-77
2022/11/14 11:47:17;;;;;;;22.80;11.93;;;;;;;;;;5006690;28;20037;-77
2022/11/14 11:49:44;;;;;;;22.70;13.07;;;;;;;;;;5007846;28;20033;-79
2022/11/14 11:52:22;;;;;;;21.80;12.95;;;;;;;;;;5007993;28;20152;-77
2022/11/14 11:54:54;;;;;;;21.17;11.38;;;;;;;;;;5008009;28;20189;-78
2022/11/14 11:57:27;;;;;;;22.65;11.88;;;;;;;;;;5005089;28;20463;-77
2022/11/14 12:00:04;;;;;;;25.52;13.00;;;;;;;;;;5000043;28;20180;-79
2022/11/14 12:02:30;;;;;;;23.65;13.68;;;;;;;;;;5000791;28;20176;-78
2022/11/14 12:04:59;;;;;;;21.95;12.93;;;;;;;;;;4998855;28;20038;-77
2022/11/14 12:07:39;;;;;;;21.92;12.85;;;;;;;;;;5008717;28;20029;-75
2022/11/14 12:10:22;;;;;;;22.83;12.43;;;;;;;;;;5021879;28;20087;-79
2022/11/14 12:13:26;;;;;;;22.65;12.05;;;;;;;;;;5008441;28;20518;-76
2022/11/14 12:16:17;;;;;;;23.48;13.07;;;;;;;;;;5007255;28;20136;-79
2022/11/14 12:18:57;;;;;;;25.67;12.68;;;;;;;;;;5006967;28;20041;-78
2022/11/14 12:21:54;;;;;;;28.13;12.77;;;;;;;;;;5022863;28;20041;-78
2022/11/14 12:24:30;;;;;;;24.20;13.20;;;;;;;;;;5006075;28;20934;-79
2022/11/14 12:27:25;;;;;;;22.40;12.57;;;;;;;;;;5006830;28;20070;-77
2022/11/14 12:30:12;;;;;;;23.05;13.60;;;;;;;;;;5025058;28;20456;-77
2022/11/14 12:32:47;;;;;;;24.10;13.32;;;;;;;;;;5005730;28;20037;-76
2022/11/14 12:35:18;;;;;;;23.48;12.98;;;;;;;;;;5020844;28;20056;-79
2022/11/14 12:37:47;;;;;;;28.45;13.30;;;;;;;;;;5003530;28;20258;-79
2022/11/14 12:40:30;;;;;;;23.27;13.43;;;;;;;;;;5009641;28;20048;-75
2022/11/14 12:42:58;;;;;;;24.50;13.32;;;;;;;;;;5006352;28;20382;-77
2022/11/14 12:45:40;;;;;;;35.95;15.15;;;;;;;;;;4978248;28;20034;-77
2022/11/14 12:48:27;;;;;;;27.30;14.43;;;;;;;;;;5018774;28;20122;-77
2022/11/14 12:50:55;;;;;;;24.77;14.15;;;;;;;;;;5007768;28;20064;-77
2022/11/14 12:53:40;;;;;;;25.08;13.80;;;;;;;;;;5003784;28;20080;-78
2022/11/14 12:56:21;;;;;;;26.50;14.25;;;;;;;;;;5003318;28;20076;-76
2022/11/14 12:59:25;;;;;;;21.90;12.50;;;;;;;;;;5003192;28;20355;-77
2022/11/14 13:01:50;;;;;;;25.70;13.88;;;;;;;;;;5003824;28;20449;-79
2022/11/14 13:04:50;;;;;;;26.50;13.95;;;;;;;;;;5000575;28;20114;-75
2022/11/14 13:07:37;;;;;;;25.08;13.48;;;;;;;;;;5004088;28;20176;-77
2022/11/14 13:10:08;;;;;;;25.48;13.77;;;;;;;;;;4998502;28;20037;-77
2022/11/14 13:24:02;;;;;;;29.60;15.68;;;;;;;;;;5001072;28;20064;-76
2022/11/14 13:26:30;;;;;;;26.38;13.60;;;;;;;;;;5005829;28;20602;-77
2022/11/14 13:28:58;;;;;;;27.88;14.90;;;;;;;;;;5017745;28;20037;-76
2022/11/14 13:31:39;;;;;;;31.10;15.65;;;;;;;;;;5006964;28;20108;-77
2022/11/14 13:34:43;;;;;;;28.27;16.02;;;;;;;;;;5016591;28;20030;-75
2022/11/14 13:37:38;;;;;;;23.80;13.85;;;;;;;;;;5019891;28;20072;-77
2022/11/14 13:40:17;;;;;;;26.17;15.40;;;;;;;;;;5019955;28;20592;-75
2022/11/14 13:43:04;;;;;;;30.27;14.55;;;;;;;;;;4994683;28;20323;-75
2022/11/14 13:45:39;;;;;;;34.00;16.48;;;;;;;;;;5006414;28;20029;-76
2022/11/14 13:48:05;;;;;;;29.90;14.77;;;;;;;;;;5010325;28;20117;-76
2022/11/14 13:50:35;;;;;;;29.38;16.10;;;;;;;;;;5009011;28;20025;-76
2022/11/14 13:53:02;;;;;;;24.83;14.32;;;;;;;;;;5002043;28;20026;-78
2022/11/14 13:55:45;;;;;;;28.60;14.77;;;;;;;;;;5006683;28;20455;-75
2022/11/14 13:58:49;;;;;;;33.58;17.23;;;;;;;;;;5034275;28;20042;-77
2022/11/14 14:01:29;;;;;;;30.27;16.35;;;;;;;;;;5020932;28;20111;-79
2022/11/14 14:04:30;;;;;;;30.23;15.93;;;;;;;;;;5026224;28;20159;-76
2022/11/14 14:07:26;;;;;;;28.63;16.13;;;;;;;;;;4999415;28;20045;-78
2022/11/14 14:10:13;;;;;;;29.33;16.08;;;;;;;;;;5013994;28;20493;-78
2022/11/14 14:13:00;;;;;;;29.67;15.23;;;;;;;;;;5008441;28;20022;-77
2022/11/14 14:15:31;;;;;;;33.83;16.42;;;;;;;;;;4998831;28;20105;-78
2022/11/14 14:18:44;;;;;;;32.85;16.10;;;;;;;;;;5017367;28;20025;-78
2022/11/14 14:21:29;;;;;;;28.98;15.85;;;;;;;;;;4991464;28;20073;-76
2022/11/14 14:24:12;;;;;;;31.15;15.43;;;;;;;;;;5004317;28;20104;-77
2022/11/14 14:26:56;;;;;;;33.40;16.30;;;;;;;;;;5010249;28;20061;-78
2022/11/14 14:29:32;;;;;;;40.13;17.38;;;;;;;;;;5002115;28;20077;-77
2022/11/14 14:32:12;;;;;;;30.63;15.80;;;;;;;;;;5007841;28;20022;-76
2022/11/14 14:34:40;;;;;;;36.88;17.90;;;;;;;;;;5006038;28;20413;-78
2022/11/14 14:37:19;;;;;;;47.70;22.10;;;;;;;;;;5016831;28;20021;-76
2022/11/14 14:40:07;;;;;;;37.08;18.60;;;;;;;;;;5018667;28;20022;-78
2022/11/14 14:42:39;;;;;;;33.50;16.88;;;;;;;;;;5007160;28;20725;-77
2022/11/14 14:45:14;;;;;;;33.13;17.15;;;;;;;;;;5015333;28;20121;-77
2022/11/14 14:47:42;;;;;;;34.42;16.67;;;;;;;;;;5011441;28;20053;-76
2022/11/14 14:50:22;;;;;;;35.45;17.42;;;;;;;;;;5010971;28;20045;-79